Terminal Aerodrome Forecast
Issued by NWS Blacksburg, VA

Home | Current Version | Previous Version | Text Only | Print | Product List | Glossary On
Versions: 1 2 3 4 5 6 7 8 9 10 11 12 13 14 15 16 17 18 19 20 21
000
FTUS41 KRNK 281734
TAFLYH
TAF
KLYH 281734Z 2818/2918 21007KT P6SM BKN040
     FM281900 25003KT 6SM -RA SCT020 OVC030
     FM282200 23003KT 6SM BR OVC030
     FM290500 34005KT 4SM -RA BR SCT006 OVC012
     FM291200 03006KT 6SM -RADZ BR OVC025
     FM291500 03005KT P6SM OVC030=

USA.gov is the U.S. government's official web portal to all federal, state and local government web resources and services.